sensor_id;sensor_type;location;lat;lon;timestamp;P1;durP1;ratioP1;P2;durP2;ratioP2
11418;SDS011;32800;44.876;13.880;2022-12-08T00:01:39;3.83;;;1.63;;
11418;SDS011;32800;44.876;13.880;2022-12-08T00:04:05;3.80;;;1.57;;
11418;SDS011;32800;44.876;13.880;2022-12-08T00:06:32;2.27;;;1.60;;
11418;SDS011;32800;44.876;13.880;2022-12-08T00:09:51;2.23;;;1.60;;
11418;SDS011;32800;44.876;13.880;2022-12-08T00:12:11;2.63;;;1.60;;
11418;SDS011;32800;44.876;13.880;2022-12-08T00:14:40;2.47;;;1.80;;
11418;SDS011;32800;44.876;13.880;2022-12-08T00:17:10;3.17;;;1.57;;
11418;SDS011;32800;44.876;13.880;2022-12-08T00:19:36;1.57;;;1.40;;
11418;SDS011;32800;44.876;13.880;2022-12-08T00:22:03;1.60;;;1.37;;
11418;SDS011;32800;44.876;13.880;2022-12-08T00:24:30;1.93;;;1.33;;
11418;SDS011;32800;44.876;13.880;2022-12-08T00:26:58;1.40;;;1.30;;
11418;SDS011;32800;44.876;13.880;2022-12-08T00:29:24;1.73;;;1.50;;
11418;SDS011;32800;44.876;13.880;2022-12-08T00:31:50;2.70;;;1.70;;
11418;SDS011;32800;44.876;13.880;2022-12-08T00:34:15;1.83;;;1.60;;
11418;SDS011;32800;44.876;13.880;2022-12-08T00:36:41;2.70;;;1.63;;
11418;SDS011;32800;44.876;13.880;2022-12-08T00:39:07;2.47;;;1.50;;
11418;SDS011;32800;44.876;13.880;2022-12-08T00:41:33;3.47;;;1.40;;
11418;SDS011;32800;44.876;13.880;2022-12-08T00:44:17;2.53;;;1.70;;
11418;SDS011;32800;44.876;13.880;2022-12-08T00:46:43;1.63;;;1.53;;
11418;SDS011;32800;44.876;13.880;2022-12-08T00:49:09;1.77;;;1.57;;
11418;SDS011;32800;44.876;13.880;2022-12-08T00:51:35;1.60;;;1.50;;
11418;SDS011;32800;44.876;13.880;2022-12-08T00:54:01;1.70;;;1.60;;
11418;SDS011;32800;44.876;13.880;2022-12-08T00:56:27;1.50;;;1.40;;
11418;SDS011;32800;44.876;13.880;2022-12-08T00:58:52;1.33;;;1.23;;
11418;SDS011;32800;44.876;13.880;2022-12-08T01:01:18;2.10;;;1.40;;
11418;SDS011;32800;44.876;13.880;2022-12-08T01:03:43;1.50;;;1.40;;
11418;SDS011;32800;44.876;13.880;2022-12-08T01:06:09;1.50;;;1.40;;
11418;SDS011;32800;44.876;13.880;2022-12-08T01:08:35;1.73;;;1.27;;
11418;SDS011;32800;44.876;13.880;2022-12-08T01:11:05;1.40;;;1.30;;
11418;SDS011;32800;44.876;13.880;2022-12-08T01:13:31;1.57;;;1.47;;
11418;SDS011;32800;44.876;13.880;2022-12-08T01:15:57;2.40;;;1.40;;
11418;SDS011;32800;44.876;13.880;2022-12-08T01:18:23;1.73;;;1.50;;
11418;SDS011;32800;44.876;13.880;2022-12-08T01:20:50;1.80;;;1.30;;
11418;SDS011;32800;44.876;13.880;2022-12-08T01:23:15;1.93;;;1.30;;
11418;SDS011;32800;44.876;13.880;2022-12-08T01:25:41;1.47;;;1.27;;
11418;SDS011;32800;44.876;13.880;2022-12-08T01:28:06;2.10;;;1.50;;
11418;SDS011;32800;44.876;13.880;2022-12-08T01:30:31;2.67;;;1.57;;
11418;SDS011;32800;44.876;13.880;2022-12-08T01:32:57;1.70;;;1.40;;
11418;SDS011;32800;44.876;13.880;2022-12-08T01:35:23;2.30;;;1.37;;
11418;SDS011;32800;44.876;13.880;2022-12-08T01:37:49;2.77;;;1.30;;
11418;SDS011;32800;44.876;13.880;2022-12-08T01:40:15;2.67;;;1.43;;
11418;SDS011;32800;44.876;13.880;2022-12-08T01:42:40;1.97;;;1.33;;
11418;SDS011;32800;44.876;13.880;2022-12-08T01:45:11;1.50;;;1.40;;
11418;SDS011;32800;44.876;13.880;2022-12-08T01:47:40;1.53;;;1.43;;
11418;SDS011;32800;44.876;13.880;2022-12-08T01:50:09;1.40;;;1.30;;
11418;SDS011;32800;44.876;13.880;2022-12-08T01:52:45;2.27;;;1.47;;
11418;SDS011;32800;44.876;13.880;2022-12-08T01:55:34;2.80;;;1.53;;
11418;SDS011;32800;44.876;13.880;2022-12-08T01:58:02;3.67;;;1.40;;
11418;SDS011;32800;44.876;13.880;2022-12-08T02:00:32;1.90;;;1.33;;
11418;SDS011;32800;44.876;13.880;2022-12-08T02:03:06;1.23;;;1.13;;
11418;SDS011;32800;44.876;13.880;2022-12-08T02:05:36;3.63;;;1.50;;
11418;SDS011;32800;44.876;13.880;2022-12-08T02:08:04;1.47;;;1.17;;
11418;SDS011;32800;44.876;13.880;2022-12-08T02:10:34;1.53;;;1.20;;
11418;SDS011;32800;44.876;13.880;2022-12-08T02:13:02;1.90;;;1.33;;
11418;SDS011;32800;44.876;13.880;2022-12-08T02:15:36;1.37;;;1.27;;
11418;SDS011;32800;44.876;13.880;2022-12-08T02:22:10;1.30;;;1.20;;
11418;SDS011;32800;44.876;13.880;2022-12-08T02:24:31;1.47;;;1.37;;
11418;SDS011;32800;44.876;13.880;2022-12-08T02:29:46;1.97;;;1.20;;
11418;SDS011;32800;44.876;13.880;2022-12-08T02:35:19;1.50;;;1.20;;
11418;SDS011;32800;44.876;13.880;2022-12-08T02:41:30;3.13;;;1.10;;
11418;SDS011;32800;44.876;13.880;2022-12-08T02:46:56;1.10;;;0.90;;
11418;SDS011;32800;44.876;13.880;2022-12-08T02:49:27;2.60;;;1.40;;
11418;SDS011;32800;44.876;13.880;2022-12-08T02:54:48;1.70;;;1.20;;
11418;SDS011;32800;44.876;13.880;2022-12-08T03:02:43;3.40;;;1.63;;
11418;SDS011;32800;44.876;13.880;2022-12-08T03:14:02;2.30;;;1.33;;
11418;SDS011;32800;44.876;13.880;2022-12-08T03:16:29;1.33;;;1.10;;
11418;SDS011;32800;44.876;13.880;2022-12-08T03:19:18;4.07;;;1.20;;
11418;SDS011;32800;44.876;13.880;2022-12-08T03:21:53;1.43;;;1.00;;
11418;SDS011;32800;44.876;13.880;2022-12-08T03:24:26;1.40;;;1.10;;
11418;SDS011;32800;44.876;13.880;2022-12-08T03:26:58;1.40;;;1.10;;
11418;SDS011;32800;44.876;13.880;2022-12-08T03:29:45;1.77;;;1.20;;
11418;SDS011;32800;44.876;13.880;2022-12-08T03:34:52;2.30;;;1.20;;
11418;SDS011;32800;44.876;13.880;2022-12-08T03:37:17;1.83;;;1.30;;
11418;SDS011;32800;44.876;13.880;2022-12-08T03:39:44;2.00;;;0.90;;
11418;SDS011;32800;44.876;13.880;2022-12-08T03:42:10;1.53;;;1.10;;
11418;SDS011;32800;44.876;13.880;2022-12-08T03:44:36;2.00;;;1.37;;
11418;SDS011;32800;44.876;13.880;2022-12-08T03:47:01;1.33;;;1.00;;
11418;SDS011;32800;44.876;13.880;2022-12-08T03:49:27;1.23;;;0.90;;
11418;SDS011;32800;44.876;13.880;2022-12-08T03:51:52;2.10;;;1.07;;
11418;SDS011;32800;44.876;13.880;2022-12-08T03:54:18;1.50;;;1.07;;
11418;SDS011;32800;44.876;13.880;2022-12-08T03:56:43;1.03;;;1.03;;
11418;SDS011;32800;44.876;13.880;2022-12-08T03:59:09;1.10;;;1.00;;
11418;SDS011;32800;44.876;13.880;2022-12-08T04:01:35;2.10;;;1.00;;
11418;SDS011;32800;44.876;13.880;2022-12-08T04:04:00;1.20;;;1.07;;
11418;SDS011;32800;44.876;13.880;2022-12-08T04:06:26;1.97;;;1.50;;
11418;SDS011;32800;44.876;13.880;2022-12-08T04:08:52;2.13;;;1.03;;
11418;SDS011;32800;44.876;13.880;2022-12-08T04:11:18;2.33;;;1.20;;
11418;SDS011;32800;44.876;13.880;2022-12-08T04:13:43;1.70;;;1.00;;
11418;SDS011;32800;44.876;13.880;2022-12-08T04:16:16;1.40;;;1.10;;
11418;SDS011;32800;44.876;13.880;2022-12-08T04:18:44;1.10;;;0.97;;
11418;SDS011;32800;44.876;13.880;2022-12-08T04:21:09;1.13;;;1.03;;
11418;SDS011;32800;44.876;13.880;2022-12-08T04:23:35;3.40;;;1.20;;
11418;SDS011;32800;44.876;13.880;2022-12-08T04:26:00;1.30;;;1.00;;
11418;SDS011;32800;44.876;13.880;2022-12-08T04:28:26;2.03;;;1.10;;
11418;SDS011;32800;44.876;13.880;2022-12-08T04:30:53;1.63;;;1.20;;
11418;SDS011;32800;44.876;13.880;2022-12-08T04:33:19;1.70;;;1.10;;
11418;SDS011;32800;44.876;13.880;2022-12-08T04:35:45;1.23;;;1.07;;
11418;SDS011;32800;44.876;13.880;2022-12-08T04:38:10;1.30;;;1.20;;
11418;SDS011;32800;44.876;13.880;2022-12-08T04:40:36;1.70;;;1.13;;
11418;SDS011;32800;44.876;13.880;2022-12-08T04:43:02;2.00;;;1.30;;
11418;SDS011;32800;44.876;13.880;2022-12-08T04:45:28;1.27;;;1.00;;
11418;SDS011;32800;44.876;13.880;2022-12-08T04:47:53;1.17;;;0.93;;
11418;SDS011;32800;44.876;13.880;2022-12-08T04:50:19;1.00;;;0.90;;
11418;SDS011;32800;44.876;13.880;2022-12-08T04:52:44;1.10;;;0.90;;
11418;SDS011;32800;44.876;13.880;2022-12-08T04:55:10;1.90;;;1.10;;
11418;SDS011;32800;44.876;13.880;2022-12-08T04:57:35;1.00;;;0.93;;
11418;SDS011;32800;44.876;13.880;2022-12-08T05:00:01;2.13;;;1.00;;
11418;SDS011;32800;44.876;13.880;2022-12-08T05:02:26;2.40;;;1.00;;
11418;SDS011;32800;44.876;13.880;2022-12-08T05:04:52;1.87;;;1.37;;
11418;SDS011;32800;44.876;13.880;2022-12-08T05:07:17;1.10;;;1.00;;
11418;SDS011;32800;44.876;13.880;2022-12-08T05:09:43;1.23;;;1.00;;
11418;SDS011;32800;44.876;13.880;2022-12-08T05:12:08;1.80;;;1.00;;
11418;SDS011;32800;44.876;13.880;2022-12-08T05:14:34;1.10;;;1.00;;
11418;SDS011;32800;44.876;13.880;2022-12-08T05:16:59;0.90;;;0.90;;
11418;SDS011;32800;44.876;13.880;2022-12-08T05:19:25;1.60;;;1.00;;
11418;SDS011;32800;44.876;13.880;2022-12-08T05:21:50;1.57;;;1.00;;
11418;SDS011;32800;44.876;13.880;2022-12-08T05:24:16;0.80;;;0.80;;
11418;SDS011;32800;44.876;13.880;2022-12-08T05:26:41;0.93;;;0.90;;
11418;SDS011;32800;44.876;13.880;2022-12-08T05:29:07;1.17;;;1.07;;
11418;SDS011;32800;44.876;13.880;2022-12-08T05:31:32;1.87;;;1.00;;
11418;SDS011;32800;44.876;13.880;2022-12-08T05:33:58;1.97;;;1.23;;
11418;SDS011;32800;44.876;13.880;2022-12-08T05:36:24;1.50;;;1.10;;
11418;SDS011;32800;44.876;13.880;2022-12-08T05:38:49;1.70;;;1.10;;
11418;SDS011;32800;44.876;13.880;2022-12-08T05:41:19;1.10;;;1.00;;
11418;SDS011;32800;44.876;13.880;2022-12-08T05:43:44;0.77;;;0.77;;
11418;SDS011;32800;44.876;13.880;2022-12-08T05:46:10;1.10;;;1.00;;
11418;SDS011;32800;44.876;13.880;2022-12-08T05:48:36;1.10;;;0.87;;
11418;SDS011;32800;44.876;13.880;2022-12-08T05:51:02;1.03;;;0.90;;
11418;SDS011;32800;44.876;13.880;2022-12-08T05:53:28;1.30;;;1.03;;
11418;SDS011;32800;44.876;13.880;2022-12-08T05:55:54;1.13;;;1.00;;
11418;SDS011;32800;44.876;13.880;2022-12-08T05:58:20;1.30;;;1.00;;
11418;SDS011;32800;44.876;13.880;2022-12-08T06:00:47;0.90;;;0.87;;
11418;SDS011;32800;44.876;13.880;2022-12-08T06:03:13;0.83;;;0.83;;
11418;SDS011;32800;44.876;13.880;2022-12-08T06:05:40;1.00;;;0.90;;
11418;SDS011;32800;44.876;13.880;2022-12-08T06:08:07;1.03;;;1.00;;
11418;SDS011;32800;44.876;13.880;2022-12-08T06:10:32;1.00;;;0.90;;
11418;SDS011;32800;44.876;13.880;2022-12-08T06:12:58;2.53;;;1.07;;
11418;SDS011;32800;44.876;13.880;2022-12-08T06:15:24;4.90;;;0.90;;
11418;SDS011;32800;44.876;13.880;2022-12-08T06:17:50;1.33;;;0.90;;
11418;SDS011;32800;44.876;13.880;2022-12-08T06:20:16;2.00;;;0.83;;
11418;SDS011;32800;44.876;13.880;2022-12-08T06:22:41;1.40;;;0.90;;
11418;SDS011;32800;44.876;13.880;2022-12-08T06:25:07;1.40;;;0.90;;
11418;SDS011;32800;44.876;13.880;2022-12-08T06:27:33;2.33;;;0.80;;
11418;SDS011;32800;44.876;13.880;2022-12-08T06:29:58;2.40;;;1.23;;
11418;SDS011;32800;44.876;13.880;2022-12-08T06:32:24;1.67;;;1.10;;
11418;SDS011;32800;44.876;13.880;2022-12-08T06:34:49;4.57;;;1.97;;
11418;SDS011;32800;44.876;13.880;2022-12-08T06:37:15;6.47;;;2.87;;
11418;SDS011;32800;44.876;13.880;2022-12-08T06:39:41;4.80;;;2.53;;
11418;SDS011;32800;44.876;13.880;2022-12-08T06:42:06;5.03;;;2.00;;
11418;SDS011;32800;44.876;13.880;2022-12-08T06:44:50;5.10;;;1.97;;
11418;SDS011;32800;44.876;13.880;2022-12-08T06:47:16;3.43;;;1.83;;
11418;SDS011;32800;44.876;13.880;2022-12-08T06:49:41;4.13;;;1.83;;
11418;SDS011;32800;44.876;13.880;2022-12-08T06:52:07;5.33;;;1.97;;
11418;SDS011;32800;44.876;13.880;2022-12-08T06:54:32;2.63;;;1.60;;
11418;SDS011;32800;44.876;13.880;2022-12-08T06:56:58;2.23;;;1.63;;
11418;SDS011;32800;44.876;13.880;2022-12-08T06:59:23;3.77;;;1.67;;
11418;SDS011;32800;44.876;13.880;2022-12-08T07:01:50;2.00;;;1.60;;
11418;SDS011;32800;44.876;13.880;2022-12-08T07:04:16;1.70;;;1.60;;
11418;SDS011;32800;44.876;13.880;2022-12-08T07:06:42;2.90;;;1.70;;
11418;SDS011;32800;44.876;13.880;2022-12-08T07:09:07;5.53;;;1.90;;
11418;SDS011;32800;44.876;13.880;2022-12-08T07:11:33;3.33;;;1.80;;
11418;SDS011;32800;44.876;13.880;2022-12-08T07:13:58;4.27;;;1.93;;
11418;SDS011;32800;44.876;13.880;2022-12-08T07:16:24;1.60;;;1.33;;
11418;SDS011;32800;44.876;13.880;2022-12-08T07:18:50;1.60;;;1.43;;
11418;SDS011;32800;44.876;13.880;2022-12-08T07:21:15;2.47;;;1.83;;
11418;SDS011;32800;44.876;13.880;2022-12-08T07:23:43;1.77;;;1.43;;
11418;SDS011;32800;44.876;13.880;2022-12-08T07:26:10;1.67;;;1.47;;
11418;SDS011;32800;44.876;13.880;2022-12-08T07:28:36;2.57;;;1.53;;
11418;SDS011;32800;44.876;13.880;2022-12-08T07:31:03;1.90;;;1.43;;
11418;SDS011;32800;44.876;13.880;2022-12-08T07:33:30;1.90;;;1.70;;
11418;SDS011;32800;44.876;13.880;2022-12-08T07:35:56;2.30;;;1.57;;
11418;SDS011;32800;44.876;13.880;2022-12-08T07:38:23;3.17;;;1.90;;
11418;SDS011;32800;44.876;13.880;2022-12-08T07:40:49;2.10;;;1.77;;
11418;SDS011;32800;44.876;13.880;2022-12-08T07:43:15;2.47;;;1.60;;
11418;SDS011;32800;44.876;13.880;2022-12-08T07:45:41;2.77;;;1.73;;
11418;SDS011;32800;44.876;13.880;2022-12-08T07:48:06;3.27;;;1.70;;
11418;SDS011;32800;44.876;13.880;2022-12-08T07:50:32;1.90;;;1.50;;
11418;SDS011;32800;44.876;13.880;2022-12-08T07:52:58;2.70;;;1.60;;
11418;SDS011;32800;44.876;13.880;2022-12-08T07:55:24;3.10;;;1.60;;
11418;SDS011;32800;44.876;13.880;2022-12-08T07:57:49;1.90;;;1.43;;
11418;SDS011;32800;44.876;13.880;2022-12-08T08:00:15;2.73;;;1.47;;
11418;SDS011;32800;44.876;13.880;2022-12-08T08:02:41;1.83;;;1.63;;
11418;SDS011;32800;44.876;13.880;2022-12-08T08:05:07;2.23;;;1.57;;
11418;SDS011;32800;44.876;13.880;2022-12-08T08:07:33;1.70;;;1.60;;
11418;SDS011;32800;44.876;13.880;2022-12-08T08:10:00;2.80;;;1.60;;
11418;SDS011;32800;44.876;13.880;2022-12-08T08:12:27;1.80;;;1.43;;
11418;SDS011;32800;44.876;13.880;2022-12-08T08:14:53;2.00;;;1.40;;
11418;SDS011;32800;44.876;13.880;2022-12-08T08:17:18;3.93;;;1.50;;
11418;SDS011;32800;44.876;13.880;2022-12-08T08:19:44;3.43;;;1.77;;
11418;SDS011;32800;44.876;13.880;2022-12-08T08:22:10;1.53;;;1.43;;
11418;SDS011;32800;44.876;13.880;2022-12-08T08:24:36;2.23;;;1.37;;
11418;SDS011;32800;44.876;13.880;2022-12-08T08:27:01;2.83;;;1.60;;
11418;SDS011;32800;44.876;13.880;2022-12-08T08:29:27;2.10;;;1.60;;
11418;SDS011;32800;44.876;13.880;2022-12-08T08:31:52;3.27;;;1.50;;
11418;SDS011;32800;44.876;13.880;2022-12-08T08:34:18;2.70;;;1.70;;
11418;SDS011;32800;44.876;13.880;2022-12-08T08:36:43;1.80;;;1.60;;
11418;SDS011;32800;44.876;13.880;2022-12-08T08:39:09;2.17;;;1.80;;
11418;SDS011;32800;44.876;13.880;2022-12-08T08:41:34;2.03;;;1.50;;
11418;SDS011;32800;44.876;13.880;2022-12-08T08:44:00;2.17;;;1.60;;
11418;SDS011;32800;44.876;13.880;2022-12-08T08:46:26;2.87;;;1.40;;
11418;SDS011;32800;44.876;13.880;2022-12-08T08:48:51;2.83;;;2.00;;
11418;SDS011;32800;44.876;13.880;2022-12-08T08:51:17;3.90;;;1.83;;
11418;SDS011;32800;44.876;13.880;2022-12-08T08:53:42;2.00;;;1.63;;
11418;SDS011;32800;44.876;13.880;2022-12-08T08:56:08;2.30;;;1.63;;
11418;SDS011;32800;44.876;13.880;2022-12-08T08:58:35;1.83;;;1.63;;
11418;SDS011;32800;44.876;13.880;2022-12-08T09:01:00;1.70;;;1.60;;
11418;SDS011;32800;44.876;13.880;2022-12-08T09:03:26;2.33;;;1.40;;
11418;SDS011;32800;44.876;13.880;2022-12-08T09:05:51;2.23;;;1.70;;
11418;SDS011;32800;44.876;13.880;2022-12-08T09:08:17;3.10;;;1.60;;
11418;SDS011;32800;44.876;13.880;2022-12-08T09:10:42;2.00;;;1.60;;
11418;SDS011;32800;44.876;13.880;2022-12-08T09:13:08;2.27;;;1.60;;
11418;SDS011;32800;44.876;13.880;2022-12-08T09:15:33;1.60;;;1.50;;
11418;SDS011;32800;44.876;13.880;2022-12-08T09:17:59;2.27;;;1.80;;
11418;SDS011;32800;44.876;13.880;2022-12-08T09:20:24;3.67;;;1.77;;
11418;SDS011;32800;44.876;13.880;2022-12-08T09:22:50;2.47;;;1.50;;
11418;SDS011;32800;44.876;13.880;2022-12-08T09:25:15;1.83;;;1.60;;
11418;SDS011;32800;44.876;13.880;2022-12-08T09:27:41;1.83;;;1.50;;
11418;SDS011;32800;44.876;13.880;2022-12-08T09:30:07;1.83;;;1.50;;
11418;SDS011;32800;44.876;13.880;2022-12-08T09:32:33;1.83;;;1.63;;
11418;SDS011;32800;44.876;13.880;2022-12-08T09:34:58;2.27;;;1.70;;
11418;SDS011;32800;44.876;13.880;2022-12-08T09:37:24;2.07;;;1.40;;
11418;SDS011;32800;44.876;13.880;2022-12-08T09:39:49;2.57;;;1.90;;
11418;SDS011;32800;44.876;13.880;2022-12-08T09:42:16;2.00;;;1.60;;
11418;SDS011;32800;44.876;13.880;2022-12-08T09:45:06;1.60;;;1.50;;
11418;SDS011;32800;44.876;13.880;2022-12-08T09:47:35;2.03;;;1.73;;
11418;SDS011;32800;44.876;13.880;2022-12-08T09:50:09;2.20;;;1.80;;
11418;SDS011;32800;44.876;13.880;2022-12-08T09:52:40;2.63;;;1.67;;
11418;SDS011;32800;44.876;13.880;2022-12-08T09:55:10;2.83;;;1.87;;
11418;SDS011;32800;44.876;13.880;2022-12-08T09:57:49;2.57;;;1.70;;
11418;SDS011;32800;44.876;13.880;2022-12-08T10:00:20;2.77;;;1.87;;
11418;SDS011;32800;44.876;13.880;2022-12-08T10:02:46;2.10;;;1.80;;
11418;SDS011;32800;44.876;13.880;2022-12-08T10:05:12;3.40;;;1.80;;
11418;SDS011;32800;44.876;13.880;2022-12-08T10:18:31;3.00;;;2.13;;
11418;SDS011;32800;44.876;13.880;2022-12-08T10:20:59;4.53;;;2.00;;
11418;SDS011;32800;44.876;13.880;2022-12-08T10:23:46;3.30;;;1.90;;
11418;SDS011;32800;44.876;13.880;2022-12-08T10:26:15;2.97;;;2.10;;
11418;SDS011;32800;44.876;13.880;2022-12-08T10:28:43;2.70;;;2.00;;
11418;SDS011;32800;44.876;13.880;2022-12-08T10:31:13;2.00;;;1.80;;
11418;SDS011;32800;44.876;13.880;2022-12-08T10:33:40;2.50;;;2.30;;
11418;SDS011;32800;44.876;13.880;2022-12-08T10:36:06;2.30;;;2.10;;
11418;SDS011;32800;44.876;13.880;2022-12-08T10:38:35;2.00;;;1.80;;
11418;SDS011;32800;44.876;13.880;2022-12-08T10:43:38;2.43;;;2.23;;
11418;SDS011;32800;44.876;13.880;2022-12-08T10:48:52;2.33;;;2.07;;
11418;SDS011;32800;44.876;13.880;2022-12-08T10:51:34;2.40;;;2.03;;
11418;SDS011;32800;44.876;13.880;2022-12-08T10:54:04;2.30;;;2.10;;
11418;SDS011;32800;44.876;13.880;2022-12-08T10:56:33;2.83;;;2.10;;
11418;SDS011;32800;44.876;13.880;2022-12-08T10:59:09;3.33;;;2.40;;
11418;SDS011;32800;44.876;13.880;2022-12-08T11:01:39;4.33;;;2.77;;
11418;SDS011;32800;44.876;13.880;2022-12-08T11:04:16;3.17;;;2.53;;
11418;SDS011;32800;44.876;13.880;2022-12-08T11:06:43;3.10;;;2.80;;
11418;SDS011;32800;44.876;13.880;2022-12-08T11:14:26;3.63;;;3.20;;
11418;SDS011;32800;44.876;13.880;2022-12-08T11:17:04;3.17;;;2.80;;
11418;SDS011;32800;44.876;13.880;2022-12-08T11:19:31;3.23;;;2.93;;
11418;SDS011;32800;44.876;13.880;2022-12-08T11:22:02;5.57;;;3.43;;
11418;SDS011;32800;44.876;13.880;2022-12-08T11:24:57;3.83;;;2.80;;
11418;SDS011;32800;44.876;13.880;2022-12-08T11:27:24;4.20;;;3.00;;
11418;SDS011;32800;44.876;13.880;2022-12-08T11:29:50;3.27;;;2.97;;
11418;SDS011;32800;44.876;13.880;2022-12-08T11:32:15;4.47;;;3.73;;
11418;SDS011;32800;44.876;13.880;2022-12-08T11:34:43;3.60;;;3.13;;
11418;SDS011;32800;44.876;13.880;2022-12-08T11:37:16;4.60;;;3.00;;
11418;SDS011;32800;44.876;13.880;2022-12-08T11:39:48;3.37;;;3.00;;
11418;SDS011;32800;44.876;13.880;2022-12-08T11:42:17;4.00;;;3.30;;
11418;SDS011;32800;44.876;13.880;2022-12-08T11:44:49;3.70;;;3.40;;
11418;SDS011;32800;44.876;13.880;2022-12-08T11:49:54;6.43;;;3.33;;
11418;SDS011;32800;44.876;13.880;2022-12-08T11:52:28;4.70;;;3.30;;
11418;SDS011;32800;44.876;13.880;2022-12-08T11:55:02;3.53;;;3.00;;
11418;SDS011;32800;44.876;13.880;2022-12-08T11:57:38;3.63;;;3.20;;
11418;SDS011;32800;44.876;13.880;2022-12-08T12:00:04;4.10;;;3.23;;
11418;SDS011;32800;44.876;13.880;2022-12-08T12:02:34;5.37;;;3.37;;
11418;SDS011;32800;44.876;13.880;2022-12-08T12:07:58;3.90;;;3.10;;
11418;SDS011;32800;44.876;13.880;2022-12-08T12:19:04;4.27;;;3.77;;
11418;SDS011;32800;44.876;13.880;2022-12-08T12:24:04;4.43;;;3.63;;
11418;SDS011;32800;44.876;13.880;2022-12-08T12:26:33;4.17;;;3.43;;
11418;SDS011;32800;44.876;13.880;2022-12-08T12:31:35;3.33;;;3.03;;
11418;SDS011;32800;44.876;13.880;2022-12-08T12:34:06;3.93;;;2.90;;
11418;SDS011;32800;44.876;13.880;2022-12-08T12:39:22;3.83;;;3.00;;
11418;SDS011;32800;44.876;13.880;2022-12-08T12:41:57;3.57;;;3.07;;
11418;SDS011;32800;44.876;13.880;2022-12-08T12:46:53;3.67;;;3.10;;
11418;SDS011;32800;44.876;13.880;2022-12-08T12:54:43;4.17;;;3.17;;
11418;SDS011;32800;44.876;13.880;2022-12-08T12:59:42;4.07;;;3.23;;
11418;SDS011;32800;44.876;13.880;2022-12-08T13:02:31;3.77;;;3.00;;
11418;SDS011;32800;44.876;13.880;2022-12-08T13:10:22;4.07;;;3.30;;
11418;SDS011;32800;44.876;13.880;2022-12-08T13:13:33;3.20;;;2.90;;
11418;SDS011;32800;44.876;13.880;2022-12-08T13:20:50;3.53;;;2.80;;
11418;SDS011;32800;44.876;13.880;2022-12-08T13:29:33;3.47;;;2.50;;
11418;SDS011;32800;44.876;13.880;2022-12-08T13:32:02;3.13;;;2.80;;
11418;SDS011;32800;44.876;13.880;2022-12-08T13:34:54;3.67;;;2.77;;
11418;SDS011;32800;44.876;13.880;2022-12-08T13:40:15;4.83;;;2.80;;
11418;SDS011;32800;44.876;13.880;2022-12-08T13:45:34;3.73;;;2.93;;
11418;SDS011;32800;44.876;13.880;2022-12-08T13:51:07;3.00;;;2.63;;
11418;SDS011;32800;44.876;13.880;2022-12-08T13:53:43;3.53;;;3.23;;
11418;SDS011;32800;44.876;13.880;2022-12-08T13:56:13;3.50;;;3.00;;
11418;SDS011;32800;44.876;13.880;2022-12-08T13:58:39;4.40;;;3.23;;
11418;SDS011;32800;44.876;13.880;2022-12-08T14:03:51;6.47;;;3.27;;
11418;SDS011;32800;44.876;13.880;2022-12-08T14:09:06;3.53;;;2.83;;
11418;SDS011;32800;44.876;13.880;2022-12-08T14:11:37;4.23;;;3.10;;
11418;SDS011;32800;44.876;13.880;2022-12-08T14:14:06;3.60;;;3.00;;
11418;SDS011;32800;44.876;13.880;2022-12-08T14:16:47;3.40;;;3.00;;
11418;SDS011;32800;44.876;13.880;2022-12-08T14:19:20;4.97;;;2.90;;
11418;SDS011;32800;44.876;13.880;2022-12-08T14:21:51;5.13;;;3.07;;
11418;SDS011;32800;44.876;13.880;2022-12-08T14:24:38;3.87;;;2.83;;
11418;SDS011;32800;44.876;13.880;2022-12-08T14:27:05;5.03;;;2.90;;
11418;SDS011;32800;44.876;13.880;2022-12-08T14:29:44;4.90;;;3.10;;
11418;SDS011;32800;44.876;13.880;2022-12-08T14:37:33;3.03;;;2.53;;
11418;SDS011;32800;44.876;13.880;2022-12-08T14:40:03;5.03;;;3.00;;
11418;SDS011;32800;44.876;13.880;2022-12-08T14:42:30;3.23;;;2.50;;
11418;SDS011;32800;44.876;13.880;2022-12-08T14:45:11;5.60;;;2.67;;
11418;SDS011;32800;44.876;13.880;2022-12-08T14:47:38;3.20;;;2.87;;
11418;SDS011;32800;44.876;13.880;2022-12-08T14:50:35;3.17;;;2.87;;
11418;SDS011;32800;44.876;13.880;2022-12-08T14:53:09;3.33;;;2.97;;
11418;SDS011;32800;44.876;13.880;2022-12-08T14:55:36;3.20;;;2.90;;
11418;SDS011;32800;44.876;13.880;2022-12-08T14:58:02;3.60;;;3.00;;
11418;SDS011;32800;44.876;13.880;2022-12-08T15:00:28;4.97;;;2.80;;
11418;SDS011;32800;44.876;13.880;2022-12-08T15:02:54;2.93;;;2.50;;
11418;SDS011;32800;44.876;13.880;2022-12-08T15:05:20;4.33;;;2.83;;
11418;SDS011;32800;44.876;13.880;2022-12-08T15:07:51;3.10;;;2.80;;
11418;SDS011;32800;44.876;13.880;2022-12-08T15:10:25;3.10;;;2.90;;
11418;SDS011;32800;44.876;13.880;2022-12-08T15:13:35;4.63;;;2.70;;
11418;SDS011;32800;44.876;13.880;2022-12-08T15:15:46;3.17;;;2.73;;
11418;SDS011;32800;44.876;13.880;2022-12-08T15:20:43;3.10;;;2.80;;
11418;SDS011;32800;44.876;13.880;2022-12-08T15:23:27;3.47;;;2.77;;
11418;SDS011;32800;44.876;13.880;2022-12-08T15:25:57;2.73;;;2.53;;
11418;SDS011;32800;44.876;13.880;2022-12-08T15:28:24;2.80;;;2.50;;
11418;SDS011;32800;44.876;13.880;2022-12-08T15:30:51;2.80;;;2.53;;
11418;SDS011;32800;44.876;13.880;2022-12-08T15:33:17;2.80;;;2.30;;
11418;SDS011;32800;44.876;13.880;2022-12-08T15:35:43;3.10;;;2.63;;
11418;SDS011;32800;44.876;13.880;2022-12-08T15:38:30;4.37;;;2.50;;
11418;SDS011;32800;44.876;13.880;2022-12-08T15:40:55;2.50;;;2.30;;
11418;SDS011;32800;44.876;13.880;2022-12-08T15:43:24;2.87;;;2.37;;
11418;SDS011;32800;44.876;13.880;2022-12-08T15:45:50;3.30;;;2.53;;
11418;SDS011;32800;44.876;13.880;2022-12-08T15:48:23;4.00;;;2.33;;
11418;SDS011;32800;44.876;13.880;2022-12-08T15:50:51;3.50;;;2.47;;
11418;SDS011;32800;44.876;13.880;2022-12-08T15:53:16;2.73;;;2.50;;
11418;SDS011;32800;44.876;13.880;2022-12-08T15:55:42;4.80;;;2.53;;
11418;SDS011;32800;44.876;13.880;2022-12-08T15:58:12;2.80;;;2.53;;
11418;SDS011;32800;44.876;13.880;2022-12-08T16:00:45;2.40;;;2.00;;
11418;SDS011;32800;44.876;13.880;2022-12-08T16:03:18;2.57;;;2.37;;
11418;SDS011;32800;44.876;13.880;2022-12-08T16:05:48;2.87;;;2.30;;
11418;SDS011;32800;44.876;13.880;2022-12-08T16:08:14;5.77;;;2.23;;
11418;SDS011;32800;44.876;13.880;2022-12-08T16:10:40;2.67;;;2.27;;
11418;SDS011;32800;44.876;13.880;2022-12-08T16:13:11;2.60;;;2.40;;
11418;SDS011;32800;44.876;13.880;2022-12-08T16:16:00;3.28;;;2.40;;
11418;SDS011;32800;44.876;13.880;2022-12-08T16:18:27;2.90;;;2.40;;
11418;SDS011;32800;44.876;13.880;2022-12-08T16:20:57;2.77;;;2.20;;
11418;SDS011;32800;44.876;13.880;2022-12-08T16:23:23;6.60;;;2.30;;
11418;SDS011;32800;44.876;13.880;2022-12-08T16:25:48;3.10;;;2.40;;
11418;SDS011;32800;44.876;13.880;2022-12-08T16:28:14;2.30;;;2.03;;
11418;SDS011;32800;44.876;13.880;2022-12-08T16:30:40;3.80;;;2.00;;
11418;SDS011;32800;44.876;13.880;2022-12-08T16:33:05;2.13;;;1.93;;
11418;SDS011;32800;44.876;13.880;2022-12-08T16:35:31;2.80;;;2.17;;
11418;SDS011;32800;44.876;13.880;2022-12-08T16:37:56;2.20;;;2.00;;
11418;SDS011;32800;44.876;13.880;2022-12-08T16:40:22;2.30;;;2.07;;
11418;SDS011;32800;44.876;13.880;2022-12-08T16:42:48;2.30;;;2.10;;
11418;SDS011;32800;44.876;13.880;2022-12-08T16:45:18;2.67;;;2.30;;
11418;SDS011;32800;44.876;13.880;2022-12-08T16:47:52;4.57;;;2.70;;
11418;SDS011;32800;44.876;13.880;2022-12-08T16:50:27;3.20;;;2.30;;